createdAt,value
2024-03-09T00:01:45.635Z,51.98
2024-03-09T00:04:48.740Z,52.04
2024-03-09T00:07:51.902Z,52.06
2024-03-09T00:10:54.763Z,52.05
2024-03-09T00:13:57.944Z,52.09
2024-03-09T00:17:00.706Z,52.07
2024-03-09T00:20:05.137Z,52.09
2024-03-09T00:23:10.692Z,52.12
2024-03-09T00:26:19.876Z,52.13
2024-03-09T00:29:22.656Z,52.14
2024-03-09T00:32:28.300Z,52.09
2024-03-09T00:35:32.344Z,52.15
2024-03-09T00:38:35.828Z,52.16
2024-03-09T00:41:44.434Z,52.14
2024-03-09T00:44:47.995Z,52.14
2024-03-09T00:47:51.712Z,52.16
2024-03-09T00:50:55.129Z,52.18
2024-03-09T00:53:58.343Z,52.26
2024-03-09T00:57:04.137Z,52.25
2024-03-09T01:00:17.006Z,52.30
2024-03-09T01:03:19.733Z,52.34
2024-03-09T01:06:22.467Z,52.34
2024-03-09T01:09:27.168Z,52.38
2024-03-09T01:12:30.331Z,52.45
2024-03-09T01:15:32.761Z,52.47
2024-03-09T01:18:35.604Z,52.47
2024-03-09T01:21:38.238Z,52.52
2024-03-09T01:24:41.666Z,52.53
2024-03-09T01:27:43.804Z,52.49
2024-03-09T01:30:46.834Z,52.53
2024-03-09T01:33:49.414Z,52.48
2024-03-09T01:36:52.108Z,52.54
2024-03-09T01:39:55.148Z,52.43
2024-03-09T01:42:58.082Z,52.46
2024-03-09T01:46:00.404Z,52.45
2024-03-09T01:49:03.437Z,52.52
2024-03-09T01:52:07.842Z,52.55
2024-03-09T01:55:11.500Z,52.53
2024-03-09T01:58:21.244Z,52.59
2024-03-09T02:01:25.574Z,52.65
2024-03-09T02:04:33.204Z,52.64
2024-03-09T02:07:36.996Z,52.74
2024-03-09T02:10:47.196Z,52.73
2024-03-09T02:13:52.223Z,52.78
2024-03-09T02:16:56.887Z,52.85
2024-03-09T02:20:00.886Z,52.87
2024-03-09T02:23:05.143Z,52.95
2024-03-09T02:26:08.889Z,52.87
2024-03-09T02:29:13.194Z,52.89
2024-03-09T02:32:16.888Z,52.96
2024-03-09T02:35:20.025Z,53.00
2024-03-09T02:38:23.648Z,53.06
2024-03-09T02:41:27.023Z,53.09
2024-03-09T02:44:30.056Z,53.08
2024-03-09T02:47:33.181Z,53.10
2024-03-09T02:50:36.373Z,53.11
2024-03-09T02:53:38.668Z,53.13
2024-03-09T02:56:41.777Z,53.08
2024-03-09T02:59:48.207Z,53.07
2024-03-09T03:03:09.723Z,53.07
2024-03-09T03:06:12.408Z,53.00
2024-03-09T03:09:19.699Z,52.98
2024-03-09T03:12:21.896Z,52.98
2024-03-09T03:19:58.700Z,52.91
2024-03-09T03:23:01.256Z,52.86
2024-03-09T03:26:06.022Z,52.85
2024-03-09T03:29:09.256Z,52.88
2024-03-09T03:32:12.731Z,52.88
2024-03-09T03:35:15.501Z,52.92
2024-03-09T03:38:18.224Z,52.93
2024-03-09T03:41:24.692Z,53.01
2024-03-09T03:44:31.207Z,53.03
2024-03-09T03:47:33.698Z,53.01
2024-03-09T03:50:36.425Z,53.01
2024-03-09T03:53:39.857Z,53.01
2024-03-09T03:56:43.355Z,53.05
2024-03-09T03:59:46.564Z,52.99
2024-03-09T04:02:49.854Z,52.93
2024-03-09T04:05:54.539Z,52.95
2024-03-09T04:08:59.618Z,52.93
2024-03-09T04:12:02.392Z,52.93
2024-03-09T04:15:06.635Z,52.84
2024-03-09T04:22:47.617Z,52.89
2024-03-09T04:26:00.164Z,52.90
2024-03-09T04:29:03.971Z,52.91
2024-03-09T04:32:09.102Z,52.92
2024-03-09T04:35:13.514Z,52.91
2024-03-09T04:38:17.774Z,52.89
2024-03-09T04:41:21.128Z,52.84
2024-03-09T04:44:30.560Z,52.89
2024-03-09T04:47:34.531Z,52.86
2024-03-09T04:50:40.355Z,52.90
2024-03-09T04:53:43.177Z,52.97
2024-03-09T04:56:46.087Z,53.06
2024-03-09T04:59:49.812Z,53.08
2024-03-09T05:02:52.557Z,53.01
2024-03-09T05:05:55.244Z,52.96
2024-03-09T05:08:58.623Z,52.92
2024-03-09T05:12:02.322Z,52.88
2024-03-09T05:15:06.206Z,52.81
2024-03-09T05:18:10.443Z,52.87
2024-03-09T05:21:13.177Z,52.90
2024-03-09T05:24:19.663Z,52.94
2024-03-09T05:27:22.908Z,52.82
2024-03-09T05:30:30.124Z,52.89
2024-03-09T05:33:32.568Z,52.87
2024-03-09T05:36:36.305Z,52.90
2024-03-09T05:39:38.547Z,52.87
2024-03-09T05:42:51.712Z,52.85
2024-03-09T05:45:55.013Z,52.81
2024-03-09T05:48:57.809Z,52.79
2024-03-09T05:52:00.100Z,52.78
2024-03-09T05:55:03.284Z,52.74
2024-03-09T05:58:08.679Z,52.68
2024-03-09T06:01:11.595Z,52.68
2024-03-09T06:04:14.018Z,52.69
2024-03-09T06:07:17.377Z,52.75
2024-03-09T06:10:20.229Z,52.77
2024-03-09T06:13:23.826Z,52.60
2024-03-09T06:16:26.071Z,52.39
2024-03-09T06:19:29.406Z,52.14
2024-03-09T06:22:31.883Z,51.92
2024-03-09T06:25:35.561Z,51.82
2024-03-09T06:28:40.548Z,51.71
2024-03-09T06:31:44.901Z,51.64
2024-03-09T06:34:49.177Z,51.68
2024-03-09T06:38:02.795Z,51.71
2024-03-09T06:41:05.318Z,51.75
2024-03-09T06:44:15.878Z,51.79
2024-03-09T06:47:18.284Z,51.87
2024-03-09T06:50:21.481Z,51.94
2024-03-09T06:53:27.143Z,52.05
2024-03-09T06:56:36.771Z,52.11
2024-03-09T06:59:42.212Z,52.23
2024-03-09T07:02:45.671Z,52.40
2024-03-09T07:05:47.996Z,52.55
2024-03-09T07:08:51.749Z,52.61
2024-03-09T07:11:54.086Z,52.73
2024-03-09T07:14:58.656Z,52.78
2024-03-09T07:18:02.162Z,52.82
2024-03-09T07:21:06.711Z,52.88
2024-03-09T07:24:09.604Z,53.03
2024-03-09T07:27:14.799Z,53.07
2024-03-09T07:30:17.337Z,53.06
2024-03-09T07:33:20.355Z,53.04
2024-03-09T07:36:22.761Z,53.02
2024-03-09T07:39:25.421Z,53.02
2024-03-09T07:42:27.756Z,52.96
2024-03-09T07:45:31.812Z,53.09
2024-03-09T07:48:35.994Z,53.11
2024-03-09T07:51:38.584Z,53.14
2024-03-09T07:54:41.447Z,53.10
2024-03-09T07:57:47.958Z,53.07
2024-03-09T08:00:51.604Z,52.96
2024-03-09T08:03:54.814Z,52.97
2024-03-09T08:06:58.788Z,52.91
2024-03-09T08:10:02.771Z,52.81
2024-03-09T08:13:05.017Z,52.83
2024-03-09T08:16:07.826Z,52.61
2024-03-09T08:19:10.021Z,52.70
2024-03-09T08:22:13.104Z,52.65
2024-03-09T08:25:18.181Z,52.58
2024-03-09T08:28:21.970Z,52.51
2024-03-09T08:31:25.766Z,52.50
2024-03-09T08:34:28.707Z,52.43
2024-03-09T08:37:31.033Z,52.46
2024-03-09T08:40:34.079Z,52.45
2024-03-09T08:43:36.567Z,52.37
2024-03-09T08:46:40.494Z,52.39
2024-03-09T08:49:43.425Z,52.41
2024-03-09T08:52:49.244Z,52.09
2024-03-09T08:55:53.368Z,51.60
2024-03-09T08:58:56.431Z,51.03
2024-03-09T09:01:58.934Z,50.67
2024-03-09T09:05:01.906Z,50.60
2024-03-09T09:08:05.728Z,50.65
2024-03-09T09:11:14.946Z,50.69
2024-03-09T09:14:17.480Z,50.73
2024-03-09T09:17:20.620Z,50.82
2024-03-09T09:20:24.162Z,50.86
2024-03-09T09:23:27.017Z,50.93
2024-03-09T09:26:30.268Z,50.83
2024-03-09T09:29:36.219Z,50.94
2024-03-09T09:32:43.405Z,50.94
2024-03-09T09:35:47.731Z,50.94
2024-03-09T09:38:51.279Z,50.91
2024-03-09T09:41:58.931Z,50.92
2024-03-09T09:45:01.881Z,50.89
2024-03-09T09:48:06.622Z,50.68
2024-03-09T09:51:11.557Z,50.82
2024-03-09T09:54:14.463Z,50.84
2024-03-09T09:57:19.366Z,50.88
2024-03-09T10:00:25.421Z,50.93
2024-03-09T10:03:31.208Z,50.91
2024-03-09T10:06:34.400Z,50.95
2024-03-09T10:09:38.154Z,50.97
2024-03-09T10:12:42.405Z,50.91
2024-03-09T10:15:52.493Z,50.91
2024-03-09T10:18:57.666Z,50.88
2024-03-09T10:22:00.039Z,50.84
2024-03-09T10:25:02.992Z,50.85
2024-03-09T10:28:10.135Z,50.87
2024-03-09T10:31:18.189Z,50.83
2024-03-09T10:34:20.722Z,50.79
2024-03-09T10:37:24.672Z,50.75
2024-03-09T10:40:28.132Z,50.84
2024-03-09T10:43:31.466Z,50.74
2024-03-09T10:46:37.725Z,50.71
2024-03-09T10:49:45.810Z,50.59
2024-03-09T10:52:53.893Z,50.58
2024-03-09T10:56:32.579Z,50.56
2024-03-09T10:59:37.588Z,50.63
2024-03-09T11:02:42.480Z,50.64
2024-03-09T11:05:48.313Z,50.67
2024-03-09T11:08:55.092Z,50.72
2024-03-09T11:12:02.948Z,50.75
2024-03-09T11:15:09.978Z,50.68
2024-03-09T11:18:15.306Z,50.70
2024-03-09T11:21:28.295Z,50.63
2024-03-09T11:24:31.496Z,50.73
2024-03-09T11:27:35.285Z,50.74
2024-03-09T11:30:38.299Z,50.74
2024-03-09T11:33:51.649Z,50.75
2024-03-09T11:36:58.494Z,50.74
2024-03-09T11:40:00.813Z,50.72
2024-03-09T11:43:12.690Z,50.59
2024-03-09T11:46:15.176Z,50.78
2024-03-09T11:49:18.257Z,49.07
2024-03-09T11:52:23.795Z,51.05
2024-03-09T11:55:29.762Z,50.83
2024-03-09T11:58:32.657Z,50.68
2024-03-09T12:01:38.918Z,50.71
2024-03-09T12:04:43.640Z,50.63
2024-03-09T12:07:49.207Z,50.72
2024-03-09T12:10:54.362Z,50.01
2024-03-09T12:13:58.091Z,52.37
2024-03-09T12:17:00.473Z,52.15
2024-03-09T12:20:06.784Z,54.41
2024-03-09T12:23:13.522Z,53.07
2024-03-09T12:26:17.401Z,52.09
2024-03-09T12:29:19.853Z,53.20
2024-03-09T12:32:26.369Z,53.18
2024-03-09T12:35:30.303Z,55.06
2024-03-09T12:38:34.421Z,55.15
2024-03-09T12:41:38.550Z,54.31
2024-03-09T12:44:42.445Z,54.02
2024-03-09T12:47:47.696Z,53.62
2024-03-09T12:50:55.120Z,52.64
2024-03-09T12:54:08.896Z,52.29
2024-03-09T12:57:17.046Z,54.80
2024-03-09T13:00:21.925Z,54.47
2024-03-09T13:03:25.909Z,54.90
2024-03-09T13:06:29.927Z,55.06
2024-03-09T13:09:34.430Z,55.66
2024-03-09T13:12:37.219Z,56.50
2024-03-09T13:15:41.986Z,57.39
2024-03-09T13:18:51.691Z,55.75
2024-03-09T13:21:54.724Z,56.31
2024-03-09T13:24:57.883Z,54.66
2024-03-09T13:28:03.896Z,53.38
2024-03-09T13:31:08.925Z,53.50
2024-03-09T13:34:14.477Z,52.85
2024-03-09T13:37:19.101Z,52.37
2024-03-09T13:40:28.311Z,52.01
2024-03-09T13:43:30.557Z,51.64
2024-03-09T13:46:33.362Z,52.58
2024-03-09T13:49:36.051Z,52.53
2024-03-09T13:52:41.710Z,51.51
2024-03-09T13:55:44.534Z,52.32
2024-03-09T13:58:49.305Z,53.02
2024-03-09T14:01:51.926Z,52.22
2024-03-09T14:04:54.872Z,53.12
2024-03-09T14:07:59.471Z,52.31
2024-03-09T14:11:03.059Z,52.58
2024-03-09T14:14:10.225Z,53.46
2024-03-09T14:17:14.088Z,52.38
2024-03-09T14:20:23.484Z,51.75
2024-03-09T14:23:27.614Z,51.60
2024-03-09T14:26:31.474Z,51.39
2024-03-09T14:29:36.440Z,51.38
2024-03-09T14:32:41.010Z,51.50
2024-03-09T14:35:44.633Z,51.28
2024-03-09T14:38:47.936Z,51.21
2024-03-09T14:41:53.170Z,51.22
2024-03-09T14:44:56.147Z,51.23
2024-03-09T14:48:01.620Z,50.88
2024-03-09T14:51:08.651Z,51.29
2024-03-09T14:54:12.045Z,51.28
2024-03-09T14:57:14.243Z,51.15
2024-03-09T15:00:38.173Z,51.08
2024-03-09T15:03:45.840Z,51.27
2024-03-09T15:06:48.883Z,51.16
2024-03-09T15:09:51.679Z,51.17
2024-03-09T15:12:55.123Z,51.18
2024-03-09T15:15:58.648Z,51.17
2024-03-09T15:19:01.878Z,51.20
2024-03-09T15:22:04.637Z,51.15
2024-03-09T15:25:19.624Z,51.11
2024-03-09T15:28:22.019Z,51.15
2024-03-09T15:31:25.777Z,51.15
2024-03-09T15:34:28.543Z,51.17
2024-03-09T15:37:31.571Z,51.10
2024-03-09T15:40:34.200Z,51.11
2024-03-09T15:43:37.715Z,51.13
2024-03-09T15:46:40.349Z,51.15
2024-03-09T15:49:43.182Z,51.10
2024-03-09T15:52:46.543Z,51.14
2024-03-09T15:55:53.045Z,51.08
2024-03-09T15:58:58.431Z,51.08
2024-03-09T16:02:01.964Z,51.05
2024-03-09T16:05:08.516Z,51.06
2024-03-09T16:08:14.545Z,51.06
2024-03-09T16:11:18.006Z,51.09
2024-03-09T16:14:23.433Z,51.05
2024-03-09T16:17:26.899Z,51.12
2024-03-09T16:20:31.889Z,51.07
2024-03-09T16:23:36.166Z,51.11
2024-03-09T16:26:39.508Z,51.20
2024-03-09T16:29:42.561Z,51.16
2024-03-09T16:32:47.666Z,51.20
2024-03-09T16:35:51.401Z,51.21
2024-03-09T16:38:54.040Z,51.22
2024-03-09T16:41:56.572Z,51.23
2024-03-09T16:45:01.921Z,51.22
2024-03-09T16:48:07.834Z,51.26
2024-03-09T16:51:11.103Z,51.34
2024-03-09T16:54:13.619Z,51.30
2024-03-09T16:57:16.494Z,51.33
2024-03-09T17:00:22.508Z,51.35
2024-03-09T17:03:25.470Z,51.45
2024-03-09T17:06:29.117Z,51.38
2024-03-09T17:09:32.401Z,51.60
2024-03-09T17:12:40.177Z,51.58
2024-03-09T17:15:43.867Z,51.64
2024-03-09T17:18:50.421Z,51.61
2024-03-09T17:21:56.215Z,51.70
2024-03-09T17:25:00.121Z,51.67
2024-03-09T17:28:06.886Z,51.65
2024-03-09T17:31:09.956Z,51.52
2024-03-09T17:34:15.894Z,51.70
2024-03-09T17:37:21.556Z,51.67
2024-03-09T17:40:25.308Z,51.74
2024-03-09T17:43:29.330Z,51.73
2024-03-09T17:46:31.896Z,51.71
2024-03-09T17:49:35.358Z,51.73
2024-03-09T17:52:38.797Z,51.79
2024-03-09T17:55:41.138Z,51.80
2024-03-09T17:58:48.325Z,51.80
2024-03-09T18:01:52.128Z,51.84
2024-03-09T18:04:55.507Z,51.86
2024-03-09T18:08:06.032Z,51.87
2024-03-09T18:11:09.283Z,51.92
2024-03-09T18:14:13.541Z,51.85
2024-03-09T18:17:16.263Z,51.88
2024-03-09T18:20:19.533Z,51.80
2024-03-09T18:23:22.923Z,51.90
2024-03-09T18:26:28.953Z,51.84
2024-03-09T18:29:31.838Z,51.89
2024-03-09T18:32:34.129Z,51.75
2024-03-09T18:35:39.228Z,51.93
2024-03-09T18:38:43.638Z,51.91
2024-03-09T18:41:52.033Z,51.88
2024-03-09T18:44:55.421Z,51.94
2024-03-09T18:47:59.236Z,51.97
2024-03-09T18:51:02.382Z,51.93
2024-03-09T18:54:05.108Z,52.00
2024-03-09T18:57:11.525Z,51.96
2024-03-09T19:00:18.107Z,52.05
2024-03-09T19:03:31.165Z,52.00
2024-03-09T19:06:33.753Z,52.05
2024-03-09T19:09:37.827Z,51.98
2024-03-09T19:12:41.246Z,52.00
2024-03-09T19:15:43.494Z,51.94
2024-03-09T19:18:46.582Z,51.82
2024-03-09T19:21:48.996Z,51.95
2024-03-09T19:24:51.593Z,51.99
2024-03-09T19:27:54.199Z,51.99
2024-03-09T19:30:57.314Z,51.91
2024-03-09T19:34:00.952Z,51.95
2024-03-09T19:37:03.833Z,51.85
2024-03-09T19:40:16.946Z,51.84
2024-03-09T19:43:21.625Z,51.82
2024-03-09T19:46:25.756Z,51.85
2024-03-09T19:49:28.842Z,51.82
2024-03-09T19:52:32.332Z,51.84
2024-03-09T19:55:36.438Z,51.84
2024-03-09T19:58:40.586Z,51.89
2024-03-09T20:01:43.370Z,51.80
2024-03-09T20:04:47.600Z,51.93
2024-03-09T20:07:57.098Z,51.91
2024-03-09T20:11:07.181Z,51.93
2024-03-09T20:14:13.949Z,51.91
2024-03-09T20:17:17.713Z,51.85
2024-03-09T20:20:21.432Z,51.87
2024-03-09T20:23:24.116Z,51.96
2024-03-09T20:26:27.509Z,51.93
2024-03-09T20:29:30.115Z,51.92
2024-03-09T20:32:34.364Z,51.93
2024-03-09T20:35:36.818Z,51.94
2024-03-09T20:38:39.560Z,51.95
2024-03-09T20:41:43.713Z,51.93
2024-03-09T20:44:46.225Z,51.90
2024-03-09T20:47:49.080Z,51.88
2024-03-09T20:50:53.541Z,51.92
2024-03-09T20:53:56.294Z,51.94
2024-03-09T20:56:59.233Z,52.00
2024-03-09T21:00:02.219Z,52.00
2024-03-09T21:03:06.725Z,51.97
2024-03-09T21:06:09.828Z,52.03
2024-03-09T21:09:14.906Z,51.99
2024-03-09T21:12:17.197Z,52.00
2024-03-09T21:15:21.030Z,52.02
2024-03-09T21:18:23.920Z,51.93
2024-03-09T21:21:27.083Z,51.93
2024-03-09T21:24:29.797Z,51.85
2024-03-09T21:27:34.306Z,51.92
2024-03-09T21:30:37.184Z,51.87
2024-03-09T21:33:40.692Z,51.84
2024-03-09T21:36:43.493Z,51.82
2024-03-09T21:39:46.145Z,51.75
2024-03-09T21:42:49.173Z,51.70
2024-03-09T21:45:53.254Z,51.69
2024-03-09T21:48:55.700Z,51.70
2024-03-09T21:51:59.895Z,51.69
2024-03-09T21:55:02.560Z,51.70
2024-03-09T21:58:07.485Z,51.67
2024-03-09T22:01:12.870Z,51.64
2024-03-09T22:04:15.729Z,51.62
2024-03-09T22:07:18.426Z,51.71
2024-03-09T22:10:23.382Z,51.71
2024-03-09T22:13:25.808Z,51.71
2024-03-09T22:16:28.384Z,51.65
2024-03-09T22:19:30.786Z,51.64
2024-03-09T22:22:35.002Z,51.67
2024-03-09T22:25:37.453Z,51.64
2024-03-09T22:28:40.455Z,51.73
2024-03-09T22:31:43.150Z,51.73
2024-03-09T22:34:47.120Z,51.76
2024-03-09T22:37:49.561Z,51.77
2024-03-09T22:40:52.671Z,51.80
2024-03-09T22:43:56.007Z,51.77
2024-03-09T22:47:00.107Z,51.89
2024-03-09T22:50:03.449Z,51.93
2024-03-09T22:53:06.448Z,51.94
2024-03-09T22:56:10.171Z,52.07
2024-03-09T22:59:13.361Z,51.69
2024-03-09T23:02:17.096Z,52.12
2024-03-09T23:05:20.018Z,54.05
2024-03-09T23:08:22.691Z,53.38
2024-03-09T23:11:25.540Z,53.01
2024-03-09T23:14:28.233Z,52.66
2024-03-09T23:17:32.025Z,52.36
2024-03-09T23:20:35.225Z,52.11
2024-03-09T23:23:38.241Z,52.25
2024-03-09T23:26:41.874Z,52.21
2024-03-09T23:29:45.259Z,52.13
2024-03-09T23:32:48.379Z,52.14
2024-03-09T23:35:51.818Z,52.14
2024-03-09T23:38:54.062Z,52.20
2024-03-09T23:41:56.745Z,52.15
2024-03-09T23:44:59.854Z,52.22
2024-03-09T23:48:04.111Z,52.27
2024-03-09T23:51:07.692Z,52.52
2024-03-09T23:54:11.047Z,52.55
2024-03-09T23:57:14.248Z,52.55
